sensor_id;sensor_type;location;lat;lon;timestamp;P1;durP1;ratioP1;P2;durP2;ratioP2
23362;SDS011;11853;48.080;11.960;2022-09-29T00:00:43;2.35;;;1.20;;
23362;SDS011;11853;48.080;11.960;2022-09-29T00:03:09;1.33;;;1.20;;
23362;SDS011;11853;48.080;11.960;2022-09-29T00:05:35;1.65;;;1.38;;
23362;SDS011;11853;48.080;11.960;2022-09-29T00:08:00;1.52;;;1.10;;
23362;SDS011;11853;48.080;11.960;2022-09-29T00:10:26;1.23;;;1.13;;
23362;SDS011;11853;48.080;11.960;2022-09-29T00:12:52;1.20;;;1.10;;
23362;SDS011;11853;48.080;11.960;2022-09-29T00:15:18;2.15;;;1.13;;
23362;SDS011;11853;48.080;11.960;2022-09-29T00:17:45;1.15;;;1.08;;
23362;SDS011;11853;48.080;11.960;2022-09-29T00:20:11;1.30;;;1.23;;
23362;SDS011;11853;48.080;11.960;2022-09-29T00:22:37;1.40;;;1.27;;
23362;SDS011;11853;48.080;11.960;2022-09-29T00:25:03;1.90;;;1.33;;
23362;SDS011;11853;48.080;11.960;2022-09-29T00:27:29;2.83;;;1.52;;
23362;SDS011;11853;48.080;11.960;2022-09-29T00:29:55;1.67;;;1.58;;
23362;SDS011;11853;48.080;11.960;2022-09-29T00:32:20;1.55;;;1.45;;
23362;SDS011;11853;48.080;11.960;2022-09-29T00:34:46;1.80;;;1.70;;
23362;SDS011;11853;48.080;11.960;2022-09-29T00:37:12;2.00;;;1.88;;
23362;SDS011;11853;48.080;11.960;2022-09-29T00:39:40;1.60;;;1.50;;
23362;SDS011;11853;48.080;11.960;2022-09-29T00:42:08;1.50;;;1.40;;
23362;SDS011;11853;48.080;11.960;2022-09-29T00:47:30;2.35;;;1.50;;
23362;SDS011;11853;48.080;11.960;2022-09-29T00:50:02;1.65;;;1.55;;
23362;SDS011;11853;48.080;11.960;2022-09-29T00:52:35;3.30;;;1.42;;
23362;SDS011;11853;48.080;11.960;2022-09-29T00:55:27;1.63;;;1.52;;
23362;SDS011;11853;48.080;11.960;2022-09-29T00:58:25;1.98;;;1.52;;
23362;SDS011;11853;48.080;11.960;2022-09-29T01:01:00;1.80;;;1.67;;
23362;SDS011;11853;48.080;11.960;2022-09-29T01:03:29;1.20;;;1.20;;
23362;SDS011;11853;48.080;11.960;2022-09-29T01:06:02;1.67;;;1.58;;
23362;SDS011;11853;48.080;11.960;2022-09-29T01:11:15;1.70;;;1.40;;
23362;SDS011;11853;48.080;11.960;2022-09-29T01:13:44;1.50;;;1.40;;
23362;SDS011;11853;48.080;11.960;2022-09-29T01:16:11;2.00;;;1.50;;
23362;SDS011;11853;48.080;11.960;2022-09-29T01:18:37;1.70;;;1.60;;
23362;SDS011;11853;48.080;11.960;2022-09-29T01:29:23;1.67;;;1.55;;
23362;SDS011;11853;48.080;11.960;2022-09-29T01:40:34;1.77;;;1.63;;
23362;SDS011;11853;48.080;11.960;2022-09-29T01:43:07;1.40;;;1.30;;
23362;SDS011;11853;48.080;11.960;2022-09-29T01:45:40;1.67;;;1.58;;
23362;SDS011;11853;48.080;11.960;2022-09-29T01:48:13;2.20;;;2.05;;
23362;SDS011;11853;48.080;11.960;2022-09-29T01:50:47;13.73;;;10.70;;
23362;SDS011;11853;48.080;11.960;2022-09-29T01:53:22;5.03;;;4.55;;
23362;SDS011;11853;48.080;11.960;2022-09-29T01:55:55;2.50;;;2.40;;
23362;SDS011;11853;48.080;11.960;2022-09-29T01:58:32;2.95;;;2.40;;
23362;SDS011;11853;48.080;11.960;2022-09-29T02:01:08;2.28;;;2.15;;
23362;SDS011;11853;48.080;11.960;2022-09-29T02:03:40;2.30;;;2.20;;
23362;SDS011;11853;48.080;11.960;2022-09-29T02:06:15;3.55;;;2.30;;
23362;SDS011;11853;48.080;11.960;2022-09-29T02:08:50;2.45;;;2.25;;
23362;SDS011;11853;48.080;11.960;2022-09-29T02:11:21;2.70;;;2.50;;
23362;SDS011;11853;48.080;11.960;2022-09-29T02:16:40;2.17;;;2.08;;
23362;SDS011;11853;48.080;11.960;2022-09-29T02:19:14;1.83;;;1.73;;
23362;SDS011;11853;48.080;11.960;2022-09-29T02:24:11;2.53;;;2.33;;
23362;SDS011;11853;48.080;11.960;2022-09-29T02:26:37;2.33;;;2.22;;
23362;SDS011;11853;48.080;11.960;2022-09-29T02:29:04;2.65;;;2.50;;
23362;SDS011;11853;48.080;11.960;2022-09-29T02:31:31;2.75;;;2.58;;
23362;SDS011;11853;48.080;11.960;2022-09-29T02:33:58;2.75;;;2.53;;
23362;SDS011;11853;48.080;11.960;2022-09-29T02:41:55;3.80;;;3.50;;
23362;SDS011;11853;48.080;11.960;2022-09-29T02:47:49;4.00;;;3.33;;
23362;SDS011;11853;48.080;11.960;2022-09-29T03:01:22;4.20;;;3.90;;
23362;SDS011;11853;48.080;11.960;2022-09-29T03:03:48;3.95;;;3.65;;
23362;SDS011;11853;48.080;11.960;2022-09-29T03:06:14;4.47;;;4.07;;
23362;SDS011;11853;48.080;11.960;2022-09-29T03:08:43;3.78;;;3.47;;
23362;SDS011;11853;48.080;11.960;2022-09-29T03:11:09;4.30;;;4.00;;
23362;SDS011;11853;48.080;11.960;2022-09-29T03:13:37;4.38;;;3.92;;
23362;SDS011;11853;48.080;11.960;2022-09-29T03:16:03;4.45;;;4.15;;
23362;SDS011;11853;48.080;11.960;2022-09-29T03:18:28;4.75;;;4.32;;
23362;SDS011;11853;48.080;11.960;2022-09-29T03:20:54;4.35;;;4.05;;
23362;SDS011;11853;48.080;11.960;2022-09-29T03:23:25;4.88;;;4.30;;
23362;SDS011;11853;48.080;11.960;2022-09-29T03:25:50;3.90;;;3.60;;
23362;SDS011;11853;48.080;11.960;2022-09-29T03:28:16;4.75;;;4.40;;
23362;SDS011;11853;48.080;11.960;2022-09-29T03:30:42;4.57;;;4.18;;
23362;SDS011;11853;48.080;11.960;2022-09-29T03:33:09;4.43;;;4.13;;
23362;SDS011;11853;48.080;11.960;2022-09-29T03:35:36;4.65;;;4.35;;
23362;SDS011;11853;48.080;11.960;2022-09-29T03:38:01;4.28;;;3.97;;
23362;SDS011;11853;48.080;11.960;2022-09-29T03:40:27;4.65;;;4.25;;
23362;SDS011;11853;48.080;11.960;2022-09-29T03:42:53;4.13;;;3.83;;
23362;SDS011;11853;48.080;11.960;2022-09-29T03:45:24;5.95;;;4.28;;
23362;SDS011;11853;48.080;11.960;2022-09-29T03:47:50;4.50;;;4.10;;
23362;SDS011;11853;48.080;11.960;2022-09-29T03:50:16;3.92;;;3.53;;
23362;SDS011;11853;48.080;11.960;2022-09-29T03:52:42;3.22;;;3.03;;
23362;SDS011;11853;48.080;11.960;2022-09-29T03:55:07;3.65;;;3.42;;
23362;SDS011;11853;48.080;11.960;2022-09-29T03:57:33;3.70;;;3.40;;
23362;SDS011;11853;48.080;11.960;2022-09-29T03:59:59;3.90;;;3.45;;
23362;SDS011;11853;48.080;11.960;2022-09-29T04:02:25;3.80;;;3.50;;
23362;SDS011;11853;48.080;11.960;2022-09-29T04:04:51;3.63;;;3.33;;
23362;SDS011;11853;48.080;11.960;2022-09-29T04:07:16;3.50;;;3.25;;
23362;SDS011;11853;48.080;11.960;2022-09-29T04:09:42;3.70;;;3.50;;
23362;SDS011;11853;48.080;11.960;2022-09-29T04:12:08;3.92;;;3.33;;
23362;SDS011;11853;48.080;11.960;2022-09-29T04:14:34;3.40;;;3.10;;
23362;SDS011;11853;48.080;11.960;2022-09-29T04:17:02;4.57;;;3.65;;
23362;SDS011;11853;48.080;11.960;2022-09-29T04:19:28;10.90;;;6.85;;
23362;SDS011;11853;48.080;11.960;2022-09-29T04:21:56;9.63;;;7.10;;
23362;SDS011;11853;48.080;11.960;2022-09-29T04:24:25;10.35;;;6.63;;
23362;SDS011;11853;48.080;11.960;2022-09-29T04:26:50;8.38;;;6.80;;
23362;SDS011;11853;48.080;11.960;2022-09-29T04:29:16;8.85;;;6.70;;
23362;SDS011;11853;48.080;11.960;2022-09-29T04:31:42;7.95;;;5.72;;
23362;SDS011;11853;48.080;11.960;2022-09-29T04:34:10;4.38;;;3.97;;
23362;SDS011;11853;48.080;11.960;2022-09-29T04:36:35;3.90;;;3.60;;
23362;SDS011;11853;48.080;11.960;2022-09-29T04:39:08;3.45;;;2.80;;
23362;SDS011;11853;48.080;11.960;2022-09-29T04:41:34;4.25;;;2.63;;
23362;SDS011;11853;48.080;11.960;2022-09-29T04:44:03;2.97;;;2.40;;
23362;SDS011;11853;48.080;11.960;2022-09-29T04:46:30;2.38;;;2.20;;
23362;SDS011;11853;48.080;11.960;2022-09-29T04:48:55;3.10;;;2.25;;
23362;SDS011;11853;48.080;11.960;2022-09-29T04:51:21;2.17;;;1.98;;
23362;SDS011;11853;48.080;11.960;2022-09-29T04:53:47;2.10;;;2.00;;
23362;SDS011;11853;48.080;11.960;2022-09-29T04:56:15;2.90;;;2.38;;
23362;SDS011;11853;48.080;11.960;2022-09-29T04:58:40;2.40;;;2.20;;
23362;SDS011;11853;48.080;11.960;2022-09-29T05:01:07;2.95;;;2.30;;
23362;SDS011;11853;48.080;11.960;2022-09-29T05:03:38;4.10;;;3.10;;
23362;SDS011;11853;48.080;11.960;2022-09-29T05:06:04;3.90;;;3.50;;
23362;SDS011;11853;48.080;11.960;2022-09-29T05:08:30;3.40;;;3.10;;
23362;SDS011;11853;48.080;11.960;2022-09-29T05:10:56;4.82;;;3.55;;
23362;SDS011;11853;48.080;11.960;2022-09-29T05:13:22;5.07;;;3.90;;
23362;SDS011;11853;48.080;11.960;2022-09-29T05:15:48;4.10;;;3.70;;
23362;SDS011;11853;48.080;11.960;2022-09-29T05:18:14;4.07;;;3.70;;
23362;SDS011;11853;48.080;11.960;2022-09-29T05:20:40;3.50;;;3.20;;
23362;SDS011;11853;48.080;11.960;2022-09-29T05:23:05;4.10;;;3.80;;
23362;SDS011;11853;48.080;11.960;2022-09-29T05:25:34;3.85;;;3.55;;
23362;SDS011;11853;48.080;11.960;2022-09-29T05:28:01;4.07;;;3.65;;
23362;SDS011;11853;48.080;11.960;2022-09-29T05:30:27;3.60;;;3.30;;
23362;SDS011;11853;48.080;11.960;2022-09-29T05:32:52;3.33;;;3.13;;
23362;SDS011;11853;48.080;11.960;2022-09-29T05:35:18;3.47;;;3.17;;
23362;SDS011;11853;48.080;11.960;2022-09-29T05:37:44;4.05;;;3.53;;
23362;SDS011;11853;48.080;11.960;2022-09-29T05:40:10;4.78;;;3.47;;
23362;SDS011;11853;48.080;11.960;2022-09-29T05:42:39;3.70;;;3.40;;
23362;SDS011;11853;48.080;11.960;2022-09-29T05:45:05;3.95;;;3.53;;
23362;SDS011;11853;48.080;11.960;2022-09-29T05:47:33;5.20;;;3.40;;
23362;SDS011;11853;48.080;11.960;2022-09-29T05:50:02;4.28;;;3.75;;
23362;SDS011;11853;48.080;11.960;2022-09-29T05:52:28;4.55;;;3.90;;
23362;SDS011;11853;48.080;11.960;2022-09-29T05:54:53;5.00;;;4.55;;
23362;SDS011;11853;48.080;11.960;2022-09-29T05:57:19;4.90;;;3.97;;
23362;SDS011;11853;48.080;11.960;2022-09-29T05:59:45;6.30;;;5.15;;
23362;SDS011;11853;48.080;11.960;2022-09-29T06:02:10;5.07;;;4.63;;
23362;SDS011;11853;48.080;11.960;2022-09-29T06:04:37;6.38;;;4.82;;
23362;SDS011;11853;48.080;11.960;2022-09-29T06:07:03;5.57;;;5.00;;
23362;SDS011;11853;48.080;11.960;2022-09-29T06:09:28;5.43;;;4.93;;
23362;SDS011;11853;48.080;11.960;2022-09-29T06:11:56;6.18;;;5.57;;
23362;SDS011;11853;48.080;11.960;2022-09-29T06:14:22;6.05;;;5.45;;
23362;SDS011;11853;48.080;11.960;2022-09-29T06:16:48;6.30;;;5.70;;
23362;SDS011;11853;48.080;11.960;2022-09-29T06:19:23;4.43;;;4.03;;
23362;SDS011;11853;48.080;11.960;2022-09-29T06:21:56;4.20;;;3.90;;
23362;SDS011;11853;48.080;11.960;2022-09-29T06:24:22;4.40;;;4.00;;
23362;SDS011;11853;48.080;11.960;2022-09-29T06:26:48;4.50;;;4.10;;
23362;SDS011;11853;48.080;11.960;2022-09-29T06:29:13;4.20;;;3.90;;
23362;SDS011;11853;48.080;11.960;2022-09-29T06:31:39;4.88;;;4.35;;
23362;SDS011;11853;48.080;11.960;2022-09-29T06:34:05;4.07;;;3.78;;
23362;SDS011;11853;48.080;11.960;2022-09-29T06:36:41;4.68;;;4.38;;
23362;SDS011;11853;48.080;11.960;2022-09-29T06:39:27;5.18;;;4.70;;
23362;SDS011;11853;48.080;11.960;2022-09-29T06:41:53;4.05;;;3.75;;
23362;SDS011;11853;48.080;11.960;2022-09-29T06:44:22;3.33;;;3.13;;
23362;SDS011;11853;48.080;11.960;2022-09-29T06:46:50;3.80;;;3.50;;
23362;SDS011;11853;48.080;11.960;2022-09-29T06:49:18;4.15;;;3.85;;
23362;SDS011;11853;48.080;11.960;2022-09-29T06:51:44;3.38;;;3.15;;
23362;SDS011;11853;48.080;11.960;2022-09-29T06:54:11;3.33;;;3.03;;
23362;SDS011;11853;48.080;11.960;2022-09-29T06:56:38;4.22;;;3.83;;
23362;SDS011;11853;48.080;11.960;2022-09-29T06:59:04;4.95;;;4.55;;
23362;SDS011;11853;48.080;11.960;2022-09-29T07:01:30;5.15;;;4.72;;
23362;SDS011;11853;48.080;11.960;2022-09-29T07:03:56;4.65;;;4.22;;
23362;SDS011;11853;48.080;11.960;2022-09-29T07:06:24;4.07;;;3.78;;
23362;SDS011;11853;48.080;11.960;2022-09-29T07:08:54;4.20;;;3.90;;
23362;SDS011;11853;48.080;11.960;2022-09-29T07:11:21;4.65;;;4.32;;
23362;SDS011;11853;48.080;11.960;2022-09-29T07:13:46;4.25;;;3.90;;
23362;SDS011;11853;48.080;11.960;2022-09-29T07:16:14;4.15;;;3.60;;
23362;SDS011;11853;48.080;11.960;2022-09-29T07:18:43;3.33;;;3.13;;
23362;SDS011;11853;48.080;11.960;2022-09-29T07:21:12;3.17;;;2.97;;
23362;SDS011;11853;48.080;11.960;2022-09-29T07:23:46;3.30;;;3.00;;
23362;SDS011;11853;48.080;11.960;2022-09-29T07:26:13;3.90;;;3.38;;
23362;SDS011;11853;48.080;11.960;2022-09-29T07:28:41;3.88;;;3.47;;
23362;SDS011;11853;48.080;11.960;2022-09-29T07:31:08;3.25;;;3.03;;
23362;SDS011;11853;48.080;11.960;2022-09-29T07:33:36;3.67;;;3.38;;
23362;SDS011;11853;48.080;11.960;2022-09-29T07:36:05;3.10;;;2.90;;
23362;SDS011;11853;48.080;11.960;2022-09-29T07:38:30;3.58;;;3.28;;
23362;SDS011;11853;48.080;11.960;2022-09-29T07:41:04;3.72;;;3.28;;
23362;SDS011;11853;48.080;11.960;2022-09-29T07:43:34;3.03;;;2.83;;
23362;SDS011;11853;48.080;11.960;2022-09-29T07:46:04;3.15;;;2.80;;
23362;SDS011;11853;48.080;11.960;2022-09-29T07:48:36;3.17;;;2.90;;
23362;SDS011;11853;48.080;11.960;2022-09-29T07:51:04;3.70;;;2.78;;
23362;SDS011;11853;48.080;11.960;2022-09-29T07:53:37;3.15;;;2.85;;
23362;SDS011;11853;48.080;11.960;2022-09-29T07:56:04;2.80;;;2.60;;
23362;SDS011;11853;48.080;11.960;2022-09-29T07:58:31;3.08;;;2.88;;
23362;SDS011;11853;48.080;11.960;2022-09-29T08:01:05;2.70;;;2.50;;
23362;SDS011;11853;48.080;11.960;2022-09-29T08:03:34;3.00;;;2.67;;
23362;SDS011;11853;48.080;11.960;2022-09-29T08:06:01;3.53;;;2.72;;
23362;SDS011;11853;48.080;11.960;2022-09-29T08:08:28;2.85;;;2.50;;
23362;SDS011;11853;48.080;11.960;2022-09-29T08:11:01;2.72;;;2.53;;
23362;SDS011;11853;48.080;11.960;2022-09-29T08:13:28;2.97;;;2.78;;
23362;SDS011;11853;48.080;11.960;2022-09-29T08:15:59;3.33;;;3.05;;
23362;SDS011;11853;48.080;11.960;2022-09-29T08:18:28;3.00;;;2.78;;
23362;SDS011;11853;48.080;11.960;2022-09-29T08:20:55;2.80;;;2.60;;
23362;SDS011;11853;48.080;11.960;2022-09-29T08:23:22;3.05;;;2.45;;
23362;SDS011;11853;48.080;11.960;2022-09-29T08:25:57;2.40;;;2.25;;
23362;SDS011;11853;48.080;11.960;2022-09-29T08:28:29;1.98;;;1.88;;
23362;SDS011;11853;48.080;11.960;2022-09-29T08:31:01;1.73;;;1.63;;
23362;SDS011;11853;48.080;11.960;2022-09-29T08:33:28;1.75;;;1.30;;
23362;SDS011;11853;48.080;11.960;2022-09-29T08:35:58;1.00;;;1.00;;
23362;SDS011;11853;48.080;11.960;2022-09-29T08:38:25;1.40;;;1.40;;
23362;SDS011;11853;48.080;11.960;2022-09-29T08:40:55;1.40;;;1.30;;
23362;SDS011;11853;48.080;11.960;2022-09-29T08:43:30;0.90;;;0.90;;
23362;SDS011;11853;48.080;11.960;2022-09-29T08:48:50;1.00;;;1.00;;
23362;SDS011;11853;48.080;11.960;2022-09-29T08:51:24;0.80;;;0.80;;
23362;SDS011;11853;48.080;11.960;2022-09-29T08:53:56;0.95;;;0.95;;
23362;SDS011;11853;48.080;11.960;2022-09-29T08:56:30;1.30;;;1.30;;
23362;SDS011;11853;48.080;11.960;2022-09-29T08:59:00;1.65;;;1.33;;
23362;SDS011;11853;48.080;11.960;2022-09-29T09:04:10;1.40;;;1.30;;
23362;SDS011;11853;48.080;11.960;2022-09-29T09:15:47;2.30;;;1.40;;
23362;SDS011;11853;48.080;11.960;2022-09-29T09:21:57;1.52;;;1.42;;
23362;SDS011;11853;48.080;11.960;2022-09-29T09:26:43;1.70;;;1.00;;
23362;SDS011;11853;48.080;11.960;2022-09-29T09:29:20;1.00;;;1.00;;
23362;SDS011;11853;48.080;11.960;2022-09-29T09:32:08;1.25;;;1.00;;
23362;SDS011;11853;48.080;11.960;2022-09-29T09:37:32;1.23;;;1.13;;
23362;SDS011;11853;48.080;11.960;2022-09-29T09:42:38;1.02;;;1.02;;
23362;SDS011;11853;48.080;11.960;2022-09-29T09:45:11;1.33;;;1.23;;
23362;SDS011;11853;48.080;11.960;2022-09-29T09:47:55;0.80;;;0.80;;
23362;SDS011;11853;48.080;11.960;2022-09-29T09:50:28;1.23;;;1.23;;
23362;SDS011;11853;48.080;11.960;2022-09-29T09:53:20;2.45;;;1.30;;
23362;SDS011;11853;48.080;11.960;2022-09-29T09:56:36;0.88;;;0.88;;
23362;SDS011;11853;48.080;11.960;2022-09-29T09:59:32;1.60;;;1.20;;
23362;SDS011;11853;48.080;11.960;2022-09-29T10:02:18;2.25;;;1.30;;
23362;SDS011;11853;48.080;11.960;2022-09-29T10:04:50;1.38;;;1.15;;
23362;SDS011;11853;48.080;11.960;2022-09-29T10:07:27;1.98;;;1.15;;
23362;SDS011;11853;48.080;11.960;2022-09-29T10:09:55;2.47;;;1.70;;
23362;SDS011;11853;48.080;11.960;2022-09-29T10:12:29;1.53;;;1.20;;
23362;SDS011;11853;48.080;11.960;2022-09-29T10:15:00;4.05;;;1.50;;
23362;SDS011;11853;48.080;11.960;2022-09-29T10:17:36;1.50;;;1.30;;
23362;SDS011;11853;48.080;11.960;2022-09-29T10:20:07;1.60;;;1.33;;
23362;SDS011;11853;48.080;11.960;2022-09-29T10:22:34;1.58;;;1.20;;
23362;SDS011;11853;48.080;11.960;2022-09-29T10:27:33;2.80;;;1.40;;
23362;SDS011;11853;48.080;11.960;2022-09-29T10:30:04;1.98;;;1.70;;
23362;SDS011;11853;48.080;11.960;2022-09-29T10:32:42;1.67;;;1.58;;
23362;SDS011;11853;48.080;11.960;2022-09-29T10:37:51;1.30;;;1.20;;
23362;SDS011;11853;48.080;11.960;2022-09-29T10:40:25;1.88;;;1.48;;
23362;SDS011;11853;48.080;11.960;2022-09-29T10:42:53;3.97;;;1.60;;
23362;SDS011;11853;48.080;11.960;2022-09-29T10:45:25;2.55;;;1.60;;
23362;SDS011;11853;48.080;11.960;2022-09-29T10:50:26;1.63;;;1.52;;
23362;SDS011;11853;48.080;11.960;2022-09-29T10:52:58;1.52;;;1.42;;
23362;SDS011;11853;48.080;11.960;2022-09-29T10:55:33;1.60;;;1.50;;
23362;SDS011;11853;48.080;11.960;2022-09-29T11:01:05;3.30;;;1.55;;
23362;SDS011;11853;48.080;11.960;2022-09-29T11:03:36;1.40;;;1.40;;
23362;SDS011;11853;48.080;11.960;2022-09-29T11:06:09;3.20;;;1.50;;
23362;SDS011;11853;48.080;11.960;2022-09-29T11:08:56;1.50;;;1.40;;
23362;SDS011;11853;48.080;11.960;2022-09-29T11:11:57;6.10;;;2.88;;
23362;SDS011;11853;48.080;11.960;2022-09-29T11:19:43;3.05;;;2.17;;
23362;SDS011;11853;48.080;11.960;2022-09-29T11:30:21;3.45;;;2.50;;
23362;SDS011;11853;48.080;11.960;2022-09-29T11:36:02;2.47;;;2.28;;
23362;SDS011;11853;48.080;11.960;2022-09-29T11:43:45;2.25;;;2.13;;
23362;SDS011;11853;48.080;11.960;2022-09-29T11:52:03;2.65;;;2.45;;
23362;SDS011;11853;48.080;11.960;2022-09-29T11:57:46;2.85;;;2.58;;
23362;SDS011;11853;48.080;11.960;2022-09-29T12:00:21;2.60;;;2.40;;
23362;SDS011;11853;48.080;11.960;2022-09-29T12:03:17;3.50;;;3.20;;
23362;SDS011;11853;48.080;11.960;2022-09-29T12:18:02;3.05;;;2.85;;
23362;SDS011;11853;48.080;11.960;2022-09-29T12:20:36;3.05;;;2.75;;
23362;SDS011;11853;48.080;11.960;2022-09-29T12:23:08;2.53;;;2.33;;
23362;SDS011;11853;48.080;11.960;2022-09-29T12:25:37;2.30;;;2.15;;
23362;SDS011;11853;48.080;11.960;2022-09-29T12:28:26;2.20;;;2.00;;
23362;SDS011;11853;48.080;11.960;2022-09-29T12:30:58;3.83;;;2.17;;
23362;SDS011;11853;48.080;11.960;2022-09-29T12:33:30;2.70;;;2.15;;
23362;SDS011;11853;48.080;11.960;2022-09-29T12:36:19;2.22;;;2.03;;
23362;SDS011;11853;48.080;11.960;2022-09-29T12:44:46;2.53;;;2.40;;
23362;SDS011;11853;48.080;11.960;2022-09-29T12:50:19;2.85;;;2.15;;
23362;SDS011;11853;48.080;11.960;2022-09-29T12:53:33;1.88;;;1.77;;
23362;SDS011;11853;48.080;11.960;2022-09-29T12:56:09;3.15;;;1.90;;
23362;SDS011;11853;48.080;11.960;2022-09-29T13:01:27;2.10;;;2.00;;
23362;SDS011;11853;48.080;11.960;2022-09-29T13:20:14;2.57;;;2.37;;
23362;SDS011;11853;48.080;11.960;2022-09-29T13:25:53;2.42;;;2.22;;
23362;SDS011;11853;48.080;11.960;2022-09-29T13:28:42;4.55;;;2.88;;
23362;SDS011;11853;48.080;11.960;2022-09-29T13:31:29;2.53;;;2.10;;
23362;SDS011;11853;48.080;11.960;2022-09-29T13:34:00;2.10;;;1.55;;
23362;SDS011;11853;48.080;11.960;2022-09-29T13:36:31;3.83;;;1.70;;
23362;SDS011;11853;48.080;11.960;2022-09-29T13:47:44;2.33;;;1.63;;
23362;SDS011;11853;48.080;11.960;2022-09-29T14:00:58;1.75;;;1.65;;
23362;SDS011;11853;48.080;11.960;2022-09-29T14:03:43;2.35;;;1.90;;
23362;SDS011;11853;48.080;11.960;2022-09-29T14:06:16;2.00;;;1.80;;
23362;SDS011;11853;48.080;11.960;2022-09-29T14:11:38;2.65;;;2.45;;
23362;SDS011;11853;48.080;11.960;2022-09-29T14:14:08;2.60;;;2.40;;
23362;SDS011;11853;48.080;11.960;2022-09-29T14:27:36;3.30;;;2.80;;
23362;SDS011;11853;48.080;11.960;2022-09-29T14:38:03;6.47;;;4.60;;
23362;SDS011;11853;48.080;11.960;2022-09-29T14:40:33;6.72;;;4.88;;
23362;SDS011;11853;48.080;11.960;2022-09-29T14:43:03;5.60;;;3.95;;
23362;SDS011;11853;48.080;11.960;2022-09-29T14:55:14;11.18;;;8.93;;
23362;SDS011;11853;48.080;11.960;2022-09-29T15:00:20;7.47;;;5.88;;
23362;SDS011;11853;48.080;11.960;2022-09-29T15:02:51;5.18;;;4.72;;
23362;SDS011;11853;48.080;11.960;2022-09-29T15:07:54;4.68;;;4.38;;
23362;SDS011;11853;48.080;11.960;2022-09-29T15:10:23;4.30;;;3.65;;
23362;SDS011;11853;48.080;11.960;2022-09-29T15:12:50;3.58;;;3.28;;
23362;SDS011;11853;48.080;11.960;2022-09-29T15:15:29;3.70;;;3.33;;
23362;SDS011;11853;48.080;11.960;2022-09-29T15:18:21;4.93;;;4.50;;
23362;SDS011;11853;48.080;11.960;2022-09-29T15:21:16;3.50;;;3.20;;
23362;SDS011;11853;48.080;11.960;2022-09-29T15:26:41;4.20;;;3.40;;
23362;SDS011;11853;48.080;11.960;2022-09-29T15:29:14;3.30;;;3.00;;
23362;SDS011;11853;48.080;11.960;2022-09-29T15:31:44;3.38;;;2.75;;
23362;SDS011;11853;48.080;11.960;2022-09-29T15:34:17;3.35;;;3.08;;
23362;SDS011;11853;48.080;11.960;2022-09-29T15:36:45;4.32;;;3.00;;
23362;SDS011;11853;48.080;11.960;2022-09-29T15:41:58;2.60;;;2.40;;
23362;SDS011;11853;48.080;11.960;2022-09-29T15:44:30;3.03;;;2.78;;
23362;SDS011;11853;48.080;11.960;2022-09-29T15:46:58;2.70;;;2.50;;
23362;SDS011;11853;48.080;11.960;2022-09-29T15:49:25;2.72;;;2.40;;
23362;SDS011;11853;48.080;11.960;2022-09-29T15:52:02;2.50;;;2.30;;
23362;SDS011;11853;48.080;11.960;2022-09-29T15:54:38;1.98;;;1.83;;
23362;SDS011;11853;48.080;11.960;2022-09-29T15:57:26;2.67;;;2.30;;
23362;SDS011;11853;48.080;11.960;2022-09-29T16:05:35;4.43;;;2.08;;
23362;SDS011;11853;48.080;11.960;2022-09-29T16:13:28;2.10;;;2.00;;
23362;SDS011;11853;48.080;11.960;2022-09-29T16:16:04;3.00;;;2.78;;
23362;SDS011;11853;48.080;11.960;2022-09-29T16:21:04;5.43;;;2.55;;
23362;SDS011;11853;48.080;11.960;2022-09-29T16:23:40;2.60;;;2.40;;
23362;SDS011;11853;48.080;11.960;2022-09-29T16:31:29;3.47;;;2.60;;
23362;SDS011;11853;48.080;11.960;2022-09-29T16:33:56;3.45;;;2.42;;
23362;SDS011;11853;48.080;11.960;2022-09-29T16:36:35;2.45;;;2.33;;
23362;SDS011;11853;48.080;11.960;2022-09-29T16:39:02;3.40;;;2.80;;
23362;SDS011;11853;48.080;11.960;2022-09-29T16:41:30;3.45;;;2.50;;
23362;SDS011;11853;48.080;11.960;2022-09-29T16:44:13;3.05;;;2.83;;
23362;SDS011;11853;48.080;11.960;2022-09-29T16:49:23;3.40;;;3.13;;
23362;SDS011;11853;48.080;11.960;2022-09-29T16:51:53;3.20;;;3.00;;
23362;SDS011;11853;48.080;11.960;2022-09-29T16:54:22;4.70;;;3.40;;
23362;SDS011;11853;48.080;11.960;2022-09-29T16:59:38;4.35;;;3.95;;
23362;SDS011;11853;48.080;11.960;2022-09-29T17:02:07;3.95;;;3.65;;
23362;SDS011;11853;48.080;11.960;2022-09-29T17:04:37;3.63;;;3.42;;
23362;SDS011;11853;48.080;11.960;2022-09-29T17:07:02;5.15;;;4.00;;
23362;SDS011;11853;48.080;11.960;2022-09-29T17:09:33;3.60;;;3.33;;
23362;SDS011;11853;48.080;11.960;2022-09-29T17:11:59;5.47;;;3.28;;
23362;SDS011;11853;48.080;11.960;2022-09-29T17:14:25;5.03;;;3.60;;
23362;SDS011;11853;48.080;11.960;2022-09-29T17:16:54;3.63;;;3.30;;
23362;SDS011;11853;48.080;11.960;2022-09-29T17:19:20;3.22;;;3.03;;
23362;SDS011;11853;48.080;11.960;2022-09-29T17:21:46;3.50;;;3.17;;
23362;SDS011;11853;48.080;11.960;2022-09-29T17:24:12;3.92;;;3.13;;
23362;SDS011;11853;48.080;11.960;2022-09-29T17:26:41;3.83;;;3.40;;
23362;SDS011;11853;48.080;11.960;2022-09-29T17:29:27;3.90;;;3.50;;
23362;SDS011;11853;48.080;11.960;2022-09-29T17:31:53;4.18;;;3.78;;
23362;SDS011;11853;48.080;11.960;2022-09-29T17:34:19;4.35;;;3.95;;
23362;SDS011;11853;48.080;11.960;2022-09-29T17:37:06;12.38;;;8.40;;
23362;SDS011;11853;48.080;11.960;2022-09-29T17:42:17;13.20;;;10.90;;
23362;SDS011;11853;48.080;11.960;2022-09-29T17:44:46;10.50;;;9.25;;
23362;SDS011;11853;48.080;11.960;2022-09-29T17:47:13;9.00;;;8.10;;
23362;SDS011;11853;48.080;11.960;2022-09-29T17:49:43;9.18;;;8.30;;
23362;SDS011;11853;48.080;11.960;2022-09-29T17:52:15;9.45;;;8.20;;
23362;SDS011;11853;48.080;11.960;2022-09-29T17:54:43;8.63;;;7.70;;
23362;SDS011;11853;48.080;11.960;2022-09-29T17:57:21;7.65;;;6.95;;
23362;SDS011;11853;48.080;11.960;2022-09-29T17:59:51;6.73;;;6.13;;
23362;SDS011;11853;48.080;11.960;2022-09-29T18:02:18;7.13;;;6.50;;
23362;SDS011;11853;48.080;11.960;2022-09-29T18:04:43;8.10;;;6.82;;
23362;SDS011;11853;48.080;11.960;2022-09-29T18:07:12;8.35;;;7.40;;
23362;SDS011;11853;48.080;11.960;2022-09-29T18:09:39;8.23;;;6.72;;
23362;SDS011;11853;48.080;11.960;2022-09-29T18:12:06;8.43;;;7.63;;
23362;SDS011;11853;48.080;11.960;2022-09-29T18:14:32;8.63;;;7.80;;
23362;SDS011;11853;48.080;11.960;2022-09-29T18:17:01;11.82;;;9.60;;
23362;SDS011;11853;48.080;11.960;2022-09-29T18:22:00;13.93;;;12.52;;
23362;SDS011;11853;48.080;11.960;2022-09-29T18:24:27;13.52;;;12.13;;
23362;SDS011;11853;48.080;11.960;2022-09-29T18:26:53;13.98;;;12.63;;
23362;SDS011;11853;48.080;11.960;2022-09-29T18:29:19;13.57;;;12.23;;
23362;SDS011;11853;48.080;11.960;2022-09-29T18:31:44;13.55;;;12.25;;
23362;SDS011;11853;48.080;11.960;2022-09-29T18:34:12;12.82;;;11.52;;
23362;SDS011;11853;48.080;11.960;2022-09-29T18:36:40;12.05;;;10.95;;
23362;SDS011;11853;48.080;11.960;2022-09-29T18:39:06;11.40;;;10.40;;
23362;SDS011;11853;48.080;11.960;2022-09-29T18:41:32;10.07;;;9.18;;
23362;SDS011;11853;48.080;11.960;2022-09-29T18:43:59;9.35;;;8.45;;
23362;SDS011;11853;48.080;11.960;2022-09-29T18:46:24;7.65;;;7.00;;
23362;SDS011;11853;48.080;11.960;2022-09-29T18:48:50;7.22;;;6.32;;
23362;SDS011;11853;48.080;11.960;2022-09-29T18:51:16;7.30;;;6.70;;
23362;SDS011;11853;48.080;11.960;2022-09-29T18:53:43;7.60;;;6.28;;
23362;SDS011;11853;48.080;11.960;2022-09-29T18:56:10;7.00;;;6.32;;
23362;SDS011;11853;48.080;11.960;2022-09-29T18:58:43;6.03;;;5.47;;
23362;SDS011;11853;48.080;11.960;2022-09-29T19:01:11;6.75;;;6.05;;